ポルトープランス の空港の天気 - METARとTAF

ポルトープランス国際空港 ( MTPP / PAP ) - ハイチ ポルトープランス
飛行場実況気象(Metar)
観測時間01/24 06:59 EST (01/24 11:59 UTC)
風向・風速東 2m/s
視程8000m
天気現象
-
気温20℃
湿度-
気圧1013hPa
METARMTPP 241159Z 10004KT 060V120 8000 SCT020/ 22/20 Q1013 A2993
過去の天気等 Google飛行場航空写真 Wunderground天気予報

過去48時間のMETAR

飛行場予報(TAF)
データがありません